Time;durP1;ratioP1;P1;durP2;ratioP2;P2;SDS_P1;SDS_P2;PMS_P1;PMS_P2;Temp;Humidity;BMP_temperature;BMP_pressure;BME280_temperature;BME280_humidity;BME280_pressure;Samples;Min_cycle;Max_cycle;Signal;HPM_P1;HPM_P2
2022/06/06 00:00:47;;;;;;;57.88;40.22;;;16.50;99.90;;;;;;5092520;28;20016;-70
2022/06/06 00:03:14;;;;;;;69.72;45.80;;;16.60;99.90;;;;;;5094722;28;20020;-70
2022/06/06 00:05:42;;;;;;;74.88;46.25;;;16.60;99.90;;;;;;5094723;28;20107;-70
2022/06/06 00:08:09;;;;;;;78.45;49.58;;;16.60;99.90;;;;;;5094699;28;20020;-70
2022/06/06 00:10:35;;;;;;;82.38;50.25;;;16.60;99.90;;;;;;5094610;28;20016;-70
2022/06/06 00:13:01;;;;;;;78.70;51.22;;;16.60;99.90;;;;;;5094626;28;20020;-70
2022/06/06 00:15:26;;;;;;;92.07;54.67;;;16.60;99.90;;;;;;5094341;28;20368;-70
2022/06/06 00:17:52;;;;;;;87.93;55.50;;;16.70;99.90;;;;;;5094476;28;20055;-69
2022/06/06 00:20:17;;;;;;;87.75;55.58;;;16.70;99.90;;;;;;5093183;28;20382;-70
2022/06/06 00:22:43;;;;;;;95.43;58.60;;;16.70;99.90;;;;;;5076267;28;20085;-69
2022/06/06 00:25:09;;;;;;;95.18;58.28;;;16.70;99.90;;;;;;5094334;28;20020;-70
2022/06/06 00:27:35;;;;;;;92.10;58.20;;;16.70;99.90;;;;;;5093012;28;20020;-70
2022/06/06 00:30:01;;;;;;;90.00;56.97;;;16.70;99.90;;;;;;5094222;28;20080;-70
2022/06/06 00:35:14;;;;;;;88.22;55.75;;;16.80;99.90;;;;;;5093076;28;20028;-70
2022/06/06 00:37:42;;;;;;;83.15;52.42;;;16.80;99.90;;;;;;5093961;28;20062;-70
2022/06/06 00:40:10;;;;;;;74.75;47.50;;;16.80;99.90;;;;;;5092992;28;20133;-70
2022/06/06 00:42:38;;;;;;;66.75;44.42;;;16.90;99.90;;;;;;5092859;28;20493;-70
2022/06/06 00:45:27;;;;;;;65.93;42.58;;;16.90;99.90;;;;;;5094050;28;20012;-70
2022/06/06 00:48:14;;;;;;;60.70;39.28;;;16.90;99.90;;;;;;5093827;28;20020;-70
2022/06/06 00:51:01;;;;;;;63.60;40.50;;;17.00;99.90;;;;;;5093831;28;20481;-70
2022/06/06 00:53:39;;;;;;;62.17;40.75;;;17.00;99.90;;;;;;5093860;28;20020;-70
2022/06/06 00:56:14;;;;;;;60.22;40.20;;;17.00;99.90;;;;;;5092472;28;20020;-69
2022/06/06 00:58:40;;;;;;;60.72;39.40;;;17.00;99.90;;;;;;5092663;28;20028;-69
2022/06/06 01:01:08;;;;;;;66.40;41.90;;;17.00;99.90;;;;;;5093750;28;20074;-70
2022/06/06 01:03:37;;;;;;;61.72;40.50;;;17.00;99.90;;;;;;5092556;28;20024;-70
2022/06/06 01:06:04;;;;;;;63.60;41.13;;;17.00;99.90;;;;;;5075687;28;20032;-69
2022/06/06 01:08:31;;;;;;;75.60;46.78;;;17.00;99.90;;;;;;5093599;28;20114;-70
2022/06/06 01:10:56;;;;;;;86.32;49.40;;;17.00;99.90;;;;;;5093363;28;20032;-70
2022/06/06 01:13:24;;;;;;;84.38;50.17;;;17.00;99.90;;;;;;5092344;28;20039;-69
2022/06/06 01:18:58;;;;;;;99.03;55.80;;;17.00;99.90;;;;;;5111069;27;20388;-69
2022/06/06 01:21:53;;;;;;;97.80;58.17;;;16.80;99.90;;;;;;5109799;28;20032;-69
2022/06/06 01:24:39;;;;;;;109.32;59.75;;;16.70;99.90;;;;;;5110895;28;20024;-68
2022/06/06 01:27:44;;;;;;;116.20;59.75;;;16.60;99.90;;;;;;5109622;28;20020;-68
2022/06/06 01:30:15;;;;;;;111.78;61.72;;;16.50;99.90;;;;;;5109529;28;20024;-68
2022/06/06 01:32:43;;;;;;;137.70;70.57;;;16.50;99.90;;;;;;5109915;28;20016;-68
2022/06/06 01:35:10;;;;;;;149.65;75.88;;;16.30;99.90;;;;;;5110836;28;20389;-68
2022/06/06 01:37:40;;;;;;;164.68;81.93;;;16.20;99.90;;;;;;5110642;28;20090;-68
2022/06/06 01:40:09;;;;;;;159.63;80.65;;;16.10;99.90;;;;;;5109503;28;20386;-68
2022/06/06 01:42:43;;;;;;;164.25;82.20;;;16.00;99.90;;;;;;5109408;28;20055;-68
2022/06/06 01:45:17;;;;;;;162.18;83.65;;;16.00;99.90;;;;;;5109354;28;20020;-68
2022/06/06 01:47:47;;;;;;;169.50;84.18;;;16.00;99.90;;;;;;5109386;28;20039;-69
2022/06/06 01:50:14;;;;;;;164.77;86.45;;;15.90;99.90;;;;;;5110626;28;20024;-69
2022/06/06 01:53:01;;;;;;;170.75;83.57;;;15.90;99.90;;;;;;5110454;28;20028;-69
2022/06/06 01:55:28;;;;;;;152.77;81.35;;;15.90;99.90;;;;;;5110417;28;20034;-69
2022/06/06 01:58:01;;;;;;;149.23;78.15;;;15.80;99.90;;;;;;5110308;28;20027;-68
2022/06/06 02:00:27;;;;;;;144.07;74.57;;;15.90;99.90;;;;;;5092494;28;20550;-69
2022/06/06 02:02:53;;;;;;;140.20;75.65;;;15.90;99.90;;;;;;5092118;28;20024;-68
2022/06/06 02:05:18;;;;;;;126.22;68.72;;;15.90;99.90;;;;;;5110217;28;20040;-69
2022/06/06 02:07:44;;;;;;;127.15;68.57;;;15.90;99.90;;;;;;5092015;28;20027;-69
2022/06/06 02:10:12;;;;;;;128.82;66.88;;;15.80;99.90;;;;;;5091935;28;20031;-69
2022/06/06 02:12:39;;;;;;;126.90;66.90;;;15.80;99.90;;;;;;5108787;28;20023;-68
2022/06/06 02:15:06;;;;;;;119.80;65.55;;;15.80;99.90;;;;;;5110076;28;20030;-69
2022/06/06 02:17:32;;;;;;;117.55;63.78;;;15.80;99.90;;;;;;5108544;28;20101;-69
2022/06/06 02:19:57;;;;;;;115.60;63.70;;;15.80;99.90;;;;;;5109985;28;20470;-69
2022/06/06 02:22:23;;;;;;;110.90;61.13;;;15.80;99.90;;;;;;5109835;28;20023;-68
2022/06/06 02:24:49;;;;;;;107.45;59.70;;;15.90;99.90;;;;;;5108755;28;20024;-68
2022/06/06 02:27:14;;;;;;;105.03;58.72;;;15.80;99.90;;;;;;5108662;28;20489;-68
2022/06/06 02:29:41;;;;;;;101.38;57.40;;;15.80;99.90;;;;;;5096091;28;20118;-69
2022/06/06 02:32:08;;;;;;;106.80;57.65;;;15.80;99.90;;;;;;5095010;28;20479;-68
2022/06/06 02:34:34;;;;;;;99.00;54.40;;;15.80;99.90;;;;;;5078135;28;20036;-68
2022/06/06 02:37:01;;;;;;;97.18;54.10;;;15.80;99.90;;;;;;5096045;28;20020;-68
2022/06/06 02:39:26;;;;;;;93.53;51.88;;;15.80;99.90;;;;;;5096055;28;20024;-68
2022/06/06 02:41:52;;;;;;;86.82;49.00;;;15.80;99.90;;;;;;5094852;28;20114;-68
2022/06/06 02:44:17;;;;;;;85.65;48.88;;;15.80;99.90;;;;;;5077891;28;20027;-68
2022/06/06 02:46:43;;;;;;;84.53;48.03;;;15.70;99.90;;;;;;5095815;28;20090;-68
2022/06/06 02:49:09;;;;;;;86.32;49.47;;;15.70;99.90;;;;;;5095776;28;20030;-69
2022/06/06 02:51:34;;;;;;;81.55;47.50;;;15.70;99.90;;;;;;5094576;28;20031;-68
2022/06/06 02:54:01;;;;;;;81.25;47.22;;;15.70;99.90;;;;;;5094448;28;20020;-69
2022/06/06 02:56:27;;;;;;;82.43;46.03;;;15.70;99.90;;;;;;5094646;28;20107;-68
2022/06/06 02:58:55;;;;;;;84.35;45.60;;;15.70;99.90;;;;;;5094454;28;20062;-69
2022/06/06 03:01:21;;;;;;;80.18;45.30;;;15.70;99.90;;;;;;5095688;28;20532;-69
2022/06/06 03:03:47;;;;;;;84.68;45.83;;;15.60;99.90;;;;;;5094393;28;20122;-68
2022/06/06 03:06:42;;;;;;;82.15;46.80;;;15.60;99.90;;;;;;5094290;28;20107;-69
2022/06/06 03:09:36;;;;;;;79.68;45.03;;;15.60;99.90;;;;;;5095240;28;20016;-69
2022/06/06 03:12:23;;;;;;;84.32;45.13;;;15.50;99.90;;;;;;5080213;28;20482;-68
2022/06/06 03:15:16;;;;;;;86.97;46.92;;;15.50;99.90;;;;;;5077237;28;20106;-68
2022/06/06 03:21:23;;;;;;;84.45;45.50;;;15.50;99.90;;;;;;5094889;28;20107;-68
2022/06/06 03:26:56;;;;;;;87.07;47.92;;;15.40;99.90;;;;;;5070525;28;20440;-68
2022/06/06 03:29:52;;;;;;;83.70;45.88;;;15.40;99.90;;;;;;5070498;28;20029;-68
2022/06/06 03:32:51;;;;;;;86.00;46.80;;;15.40;99.90;;;;;;5070342;28;20111;-68
2022/06/06 03:35:39;;;;;;;83.10;45.88;;;15.30;99.90;;;;;;5086043;28;20523;-68
2022/06/06 03:38:18;;;;;;;79.63;44.83;;;15.30;99.90;;;;;;5070403;28;20021;-68
2022/06/06 03:41:10;;;;;;;83.38;45.08;;;15.30;99.90;;;;;;5069060;28;20543;-68
2022/06/06 03:44:01;;;;;;;89.70;47.35;;;15.30;99.90;;;;;;5068871;28;20074;-68
2022/06/06 03:47:01;;;;;;;90.10;47.67;;;15.20;99.90;;;;;;5069979;28;20040;-68
2022/06/06 03:49:56;;;;;;;92.93;48.17;;;15.20;99.90;;;;;;5070164;28;20039;-68
2022/06/06 03:52:32;;;;;;;94.35;47.47;;;15.20;99.90;;;;;;5068712;28;20487;-68
2022/06/06 03:57:59;;;;;;;90.68;47.85;;;15.20;99.90;;;;;;5111063;27;20429;-69
2022/06/06 04:00:26;;;;;;;91.75;47.70;;;15.20;99.90;;;;;;5111152;28;20098;-69
2022/06/06 04:02:55;;;;;;;93.70;47.42;;;15.20;99.90;;;;;;5111022;28;20115;-69
2022/06/06 04:05:22;;;;;;;88.93;48.03;;;15.20;99.90;;;;;;5109823;28;20032;-69
2022/06/06 04:07:48;;;;;;;73.03;43.25;;;15.20;99.90;;;;;;5109843;28;20085;-69
2022/06/06 04:10:14;;;;;;;78.85;43.60;;;15.20;99.90;;;;;;5110863;28;20028;-69
2022/06/06 04:13:09;;;;;;;76.28;42.80;;;15.20;99.90;;;;;;5109590;28;20028;-69
2022/06/06 04:16:03;;;;;;;74.38;39.00;;;15.20;99.90;;;;;;5110775;28;20028;-69
2022/06/06 04:18:56;;;;;;;65.30;36.42;;;15.30;99.90;;;;;;5109531;28;20369;-69
2022/06/06 04:22:01;;;;;;;67.65;35.85;;;15.20;99.90;;;;;;5110684;28;20015;-69
2022/06/06 04:24:46;;;;;;;66.10;33.67;;;15.30;99.90;;;;;;5110496;28;20063;-69
2022/06/06 04:27:35;;;;;;;67.05;36.60;;;15.20;99.90;;;;;;5109402;28;20123;-69
2022/06/06 04:30:07;;;;;;;65.85;35.38;;;15.30;99.90;;;;;;5109411;28;20024;-69
2022/06/06 04:33:12;;;;;;;62.35;35.28;;;15.40;99.90;;;;;;5092769;28;20028;-69
2022/06/06 04:36:10;;;;;;;61.67;34.10;;;15.50;99.90;;;;;;5110195;28;20120;-69
2022/06/06 04:38:46;;;;;;;64.10;36.78;;;15.60;99.90;;;;;;5108964;28;20024;-69
2022/06/06 04:41:22;;;;;;;61.70;36.33;;;15.60;99.90;;;;;;5110284;28;20016;-69
2022/06/06 04:44:12;;;;;;;64.13;36.03;;;15.60;99.90;;;;;;5110508;28;20081;-69
2022/06/06 04:47:10;;;;;;;65.65;36.53;;;15.50;99.90;;;;;;5110196;28;20020;-69
2022/06/06 04:49:36;;;;;;;62.75;36.78;;;15.60;99.90;;;;;;5108784;28;20034;-69
2022/06/06 04:52:03;;;;;;;65.50;36.67;;;15.50;99.90;;;;;;5091995;28;20028;-69
2022/06/06 04:54:31;;;;;;;62.33;36.58;;;15.60;99.90;;;;;;5109130;28;20032;-70
2022/06/06 04:57:00;;;;;;;63.42;34.97;;;15.60;99.90;;;;;;5108570;28;20039;-69
2022/06/06 04:59:28;;;;;;;60.78;35.65;;;15.60;99.90;;;;;;5110010;28;20030;-69
2022/06/06 05:01:57;;;;;;;59.42;35.45;;;15.60;99.90;;;;;;5109925;28;20536;-69
2022/06/06 05:04:23;;;;;;;62.92;35.22;;;15.60;99.90;;;;;;5108673;28;20088;-69
2022/06/06 05:07:17;;;;;;;56.88;35.00;;;15.70;99.90;;;;;;5108582;28;20474;-69
2022/06/06 05:10:06;;;;;;;54.60;30.35;;;15.80;99.90;;;;;;5095918;28;20024;-69
2022/06/06 05:13:04;;;;;;;49.17;27.67;;;15.80;99.90;;;;;;5096358;28;20024;-69
2022/06/06 05:15:49;;;;;;;46.80;27.10;;;15.90;99.90;;;;;;5096011;28;20505;-69
2022/06/06 05:18:40;;;;;;;46.25;25.38;;;16.00;99.90;;;;;;5063098;28;20115;-69
2022/06/06 05:21:33;;;;;;;46.35;26.17;;;16.00;99.90;;;;;;5094866;28;20107;-69
2022/06/06 05:24:38;;;;;;;36.35;22.15;;;16.10;99.90;;;;;;5095891;28;20067;-69
2022/06/06 05:27:31;;;;;;;38.35;23.83;;;16.10;99.90;;;;;;5094379;28;20028;-69
2022/06/06 05:30:07;;;;;;;36.58;23.70;;;16.10;99.90;;;;;;5094615;28;20020;-69
2022/06/06 05:33:12;;;;;;;36.22;21.08;;;16.10;99.90;;;;;;5095777;28;20111;-68
2022/06/06 05:36:02;;;;;;;32.65;20.38;;;16.10;99.90;;;;;;5094234;28;20032;-68
2022/06/06 05:41:59;;;;;;;26.85;17.48;;;16.20;99.90;;;;;;5111064;27;20438;-68
2022/06/06 05:44:48;;;;;;;29.17;16.58;;;16.20;99.90;;;;;;5110959;28;20026;-69
2022/06/06 05:47:40;;;;;;;25.23;15.05;;;16.30;99.90;;;;;;5109898;28;20028;-69
2022/06/06 05:50:45;;;;;;;22.45;14.20;;;16.30;99.90;;;;;;5110911;28;20041;-69
2022/06/06 05:53:38;;;;;;;18.90;13.30;;;16.40;99.90;;;;;;5110743;28;20028;-69
2022/06/06 05:56:36;;;;;;;18.17;12.43;;;16.50;99.90;;;;;;5110862;28;20027;-69
2022/06/06 05:59:21;;;;;;;21.67;12.98;;;16.50;99.90;;;;;;5110871;28;20031;-69
2022/06/06 06:02:19;;;;;;;17.05;12.18;;;16.60;99.90;;;;;;5109622;28;20032;-70
2022/06/06 06:05:11;;;;;;;16.27;10.60;;;16.80;99.90;;;;;;5110697;28;20470;-69
2022/06/06 06:08:15;;;;;;;17.33;10.85;;;16.90;99.90;;;;;;5110575;28;20062;-69
2022/06/06 06:11:04;;;;;;;16.42;11.05;;;16.80;99.90;;;;;;5110549;28;20024;-69
2022/06/06 06:14:09;;;;;;;14.25;10.30;;;16.70;99.90;;;;;;5109272;28;20039;-69
2022/06/06 06:16:43;;;;;;;13.57;9.25;;;16.60;99.90;;;;;;5110557;28;20027;-69
2022/06/06 06:19:14;;;;;;;12.77;8.52;;;16.60;99.90;;;;;;5109343;28;20030;-68
2022/06/06 06:21:46;;;;;;;12.65;9.10;;;16.60;99.90;;;;;;5110423;28;20024;-69
2022/06/06 06:24:18;;;;;;;15.65;9.18;;;16.50;99.90;;;;;;5109031;28;20031;-69
2022/06/06 06:26:45;;;;;;;16.25;10.38;;;16.50;99.90;;;;;;5110291;28;20078;-69
2022/06/06 06:29:11;;;;;;;15.30;10.88;;;16.50;99.90;;;;;;5109035;28;20427;-69
2022/06/06 06:32:16;;;;;;;16.45;11.27;;;16.50;99.90;;;;;;5110466;28;20020;-69
2022/06/06 06:35:22;;;;;;;16.13;11.50;;;16.70;99.90;;;;;;5110084;28;20494;-69
2022/06/06 06:41:04;;;;;;;17.42;11.13;;;16.90;99.90;;;;;;5090830;27;20382;-69
2022/06/06 06:44:08;;;;;;;12.77;10.45;;;17.10;99.90;;;;;;5090667;28;20063;-69
2022/06/06 06:46:40;;;;;;;15.13;10.45;;;17.10;99.90;;;;;;5090573;28;20095;-69
2022/06/06 06:49:21;;;;;;;15.32;10.27;;;16.80;99.90;;;;;;5090715;28;20040;-70
2022/06/06 06:52:00;;;;;;;16.65;9.48;;;17.10;99.90;;;;;;5090561;28;20020;-70
2022/06/06 06:54:46;;;;;;;10.77;9.10;;;17.40;99.90;;;;;;5090566;28;20575;-70
2022/06/06 06:57:38;;;;;;;12.48;9.90;;;17.70;99.90;;;;;;5090472;28;20016;-69
2022/06/06 07:08:50;;;;;;;8.43;6.13;;;20.30;99.90;;;;;;5109832;28;20035;-70
2022/06/06 07:11:27;;;;;;;7.93;6.10;;;20.00;99.90;;;;;;5109909;28;20046;-70
2022/06/06 07:14:32;;;;;;;10.77;6.97;;;19.40;99.90;;;;;;5093875;28;20032;-70
2022/06/06 07:16:59;;;;;;;8.65;5.90;;;19.90;99.90;;;;;;5110785;28;20024;-69
2022/06/06 07:19:34;;;;;;;8.00;5.72;;;19.90;99.90;;;;;;5110874;28;20088;-71
2022/06/06 07:22:03;;;;;;;7.18;5.13;;;20.00;99.90;;;;;;5110907;28;20024;-71
2022/06/06 07:24:29;;;;;;;8.68;5.88;;;20.00;99.90;;;;;;5110765;28;20450;-71
2022/06/06 07:26:58;;;;;;;8.93;5.20;;;19.40;99.90;;;;;;5110741;28;20022;-71
2022/06/06 07:29:23;;;;;;;6.70;5.30;;;19.70;99.90;;;;;;5110762;28;20042;-70
2022/06/06 07:32:13;;;;;;;7.03;5.43;;;19.70;99.90;;;;;;5110767;28;20535;-71
2022/06/06 07:35:06;;;;;;;6.82;4.32;;;20.20;99.90;;;;;;5110529;28;20030;-70
2022/06/06 07:40:50;;;;;;;5.93;4.20;;;20.60;99.90;;;;;;5111099;27;20434;-71
2022/06/06 07:43:56;;;;;;;5.82;4.40;;;20.60;99.90;;;;;;5110997;28;20106;-71
2022/06/06 07:49:17;;;;;;;5.15;3.80;;;20.50;99.90;;;;;;5071043;28;20376;-72
2022/06/06 07:51:51;;;;;;;4.28;3.30;;;21.60;99.90;;;;;;5070951;28;20028;-72
2022/06/06 07:57:49;;;;;;;6.78;3.50;;;21.80;99.90;;;;;;5070618;28;20904;-70
2022/06/06 08:00:22;;;;;;;5.20;3.35;;;22.10;99.90;;;;;;5070152;28;20112;-70
2022/06/06 08:03:17;;;;;;;4.50;3.47;;;22.00;99.90;;;;;;5070514;28;20425;-70
2022/06/06 08:06:23;;;;;;;5.43;3.75;;;22.30;99.90;;;;;;5070426;28;20388;-70
2022/06/06 08:09:00;;;;;;;5.97;4.30;;;21.20;99.90;;;;;;5068992;28;20021;-70
2022/06/06 08:11:50;;;;;;;5.22;3.53;;;20.60;99.90;;;;;;5070359;28;20100;-70
2022/06/06 08:17:02;;;;;;;4.85;3.63;;;20.60;99.90;;;;;;5111224;27;20381;-71
2022/06/06 08:20:07;;;;;;;5.70;3.80;;;20.50;99.90;;;;;;5111085;28;20024;-71
2022/06/06 08:22:36;;;;;;;4.78;3.53;;;20.40;99.90;;;;;;5109620;28;20020;-70
2022/06/06 08:25:04;;;;;;;5.32;3.47;;;20.50;99.90;;;;;;5110908;28;20032;-71
2022/06/06 08:27:32;;;;;;;5.75;3.50;;;21.30;99.90;;;;;;5092724;28;20051;-71
2022/06/06 08:29:58;;;;;;;6.30;3.58;;;21.60;99.90;;;;;;5111104;28;20031;-71
2022/06/06 08:32:25;;;;;;;4.93;3.10;;;22.20;99.90;;;;;;5110978;28;20053;-71
2022/06/06 08:34:51;;;;;;;4.95;2.90;;;22.50;99.90;;;;;;5110644;28;20020;-71
2022/06/06 08:37:56;;;;;;;3.20;2.90;;;22.90;99.80;;;;;;5110707;28;20027;-71
2022/06/06 08:41:02;;;;;;;4.53;3.17;;;22.20;99.90;;;;;;5110592;28;20020;-71
2022/06/06 08:43:57;;;;;;;5.00;2.63;;;21.40;99.90;;;;;;5110599;28;20027;-71
2022/06/06 08:46:45;;;;;;;4.88;3.00;;;22.30;99.90;;;;;;5109134;28;20024;-71
2022/06/06 08:53:02;;;;;;;3.75;2.70;;;22.00;99.00;;;;;;5109243;28;20043;-71
2022/06/06 08:55:56;;;;;;;2.65;2.38;;;22.30;98.90;;;;;;5110229;28;20550;-71
2022/06/06 08:59:02;;;;;;;3.90;2.30;;;21.90;99.90;;;;;;5109065;28;20059;-71
2022/06/06 09:01:55;;;;;;;4.40;2.08;;;22.50;99.20;;;;;;5110053;28;20019;-71
2022/06/06 09:04:58;;;;;;;4.60;2.20;;;22.50;97.00;;;;;;5108907;28;20024;-71
2022/06/06 09:07:58;;;;;;;3.45;2.30;;;22.70;97.60;;;;;;5109051;28;20118;-72
2022/06/06 09:11:03;;;;;;;3.25;1.98;;;22.60;96.80;;;;;;5109904;28;20028;-72
2022/06/06 09:14:09;;;;;;;3.92;1.75;;;22.70;96.00;;;;;;5109855;28;20028;-71
2022/06/06 09:17:16;;;;;;;5.55;1.88;;;22.60;96.90;;;;;;5109654;28;20418;-71
2022/06/06 09:20:22;;;;;;;2.30;1.88;;;22.70;96.00;;;;;;5110050;28;20020;-72
2022/06/06 09:23:14;;;;;;;2.78;2.05;;;22.80;96.10;;;;;;5109696;28;20077;-73
2022/06/06 09:26:09;;;;;;;1.95;1.67;;;23.80;95.90;;;;;;5108598;28;20107;-72
2022/06/06 09:29:15;;;;;;;6.40;1.90;;;22.90;94.40;;;;;;5095831;28;20394;-72
2022/06/06 09:35:19;;;;;;;3.10;1.77;;;22.80;96.20;;;;;;5112316;27;20384;-72
2022/06/06 09:38:12;;;;;;;4.15;1.60;;;23.60;95.40;;;;;;5112671;28;20078;-72
2022/06/06 09:41:02;;;;;;;2.65;2.00;;;23.40;92.30;;;;;;5111295;28;20051;-73
2022/06/06 09:43:39;;;;;;;3.33;2.00;;;22.80;94.70;;;;;;5111573;28;20063;-73
2022/06/06 09:46:44;;;;;;;3.97;1.58;;;22.90;94.30;;;;;;5112154;28;20020;-73
2022/06/06 09:49:49;;;;;;;2.45;1.02;;;23.10;93.30;;;;;;5112077;28;20492;-72
2022/06/06 09:52:50;;;;;;;2.08;1.35;;;21.90;92.90;;;;;;5112043;28;20020;-72
2022/06/06 09:59:03;;;;;;;2.45;1.40;;;20.70;95.40;;;;;;5070569;28;20383;-69
2022/06/06 10:01:37;;;;;;;4.28;1.55;;;21.80;95.90;;;;;;5070462;28;20035;-69
2022/06/06 10:04:39;;;;;;;3.15;1.38;;;22.50;93.40;;;;;;5070627;28;20029;-69
2022/06/06 10:07:37;;;;;;;3.45;1.20;;;23.40;93.70;;;;;;5069563;28;20079;-70
2022/06/06 10:13:45;;;;;;;4.30;1.30;;;22.80;91.70;;;;;;5111059;27;20351;-70
2022/06/06 10:16:38;;;;;;;4.15;1.90;;;23.50;90.50;;;;;;5109750;28;20093;-70
2022/06/06 10:22:39;;;;;;;3.92;1.33;;;22.10;92.70;;;;;;5111088;27;20298;-69
2022/06/06 10:25:23;;;;;;;3.30;1.10;;;22.70;93.90;;;;;;5110958;28;20502;-69
2022/06/06 10:28:27;;;;;;;3.65;1.30;;;22.80;92.50;;;;;;5109983;28;20462;-70
2022/06/06 10:31:02;;;;;;;1.88;1.25;;;23.00;92.50;;;;;;5109753;28;20028;-70
2022/06/06 10:33:56;;;;;;;3.15;1.20;;;23.00;92.70;;;;;;5110898;28;20050;-70
2022/06/06 10:36:47;;;;;;;2.83;1.20;;;22.00;93.40;;;;;;5110830;28;20024;-69
2022/06/06 10:39:50;;;;;;;1.50;1.30;;;21.60;95.80;;;;;;5109596;28;20023;-69
2022/06/06 10:42:35;;;;;;;1.90;1.20;;;21.10;96.80;;;;;;5110668;28;20511;-69
2022/06/06 10:45:37;;;;;;;1.55;1.10;;;21.00;96.20;;;;;;5110744;28;20432;-69
2022/06/06 10:48:26;;;;;;;3.78;1.38;;;20.30;98.20;;;;;;5109893;28;20027;-69
2022/06/06 10:54:30;;;;;;;3.53;1.30;;;19.60;99.90;;;;;;5111090;27;20384;-69
2022/06/06 11:00:20;;;;;;;1.63;1.10;;;21.00;99.90;;;;;;5111021;27;20400;-69
2022/06/06 11:03:18;;;;;;;1.42;1.00;;;21.00;99.90;;;;;;5111071;28;20081;-70
2022/06/06 11:06:24;;;;;;;3.50;0.90;;;20.70;99.90;;;;;;5111012;28;20099;-69
2022/06/06 11:09:10;;;;;;;2.33;1.27;;;20.60;99.90;;;;;;5110776;28;20486;-69
2022/06/06 11:11:51;;;;;;;2.05;1.10;;;21.30;99.90;;;;;;5110882;28;20490;-69
2022/06/06 11:14:37;;;;;;;2.35;1.17;;;21.40;99.90;;;;;;5110841;28;20023;-69
2022/06/06 11:17:34;;;;;;;4.22;1.17;;;21.30;99.20;;;;;;5110797;28;20027;-70
2022/06/06 11:20:29;;;;;;;1.67;1.20;;;21.40;99.90;;;;;;5109513;28;20434;-69
2022/06/06 11:23:24;;;;;;;3.40;1.40;;;21.80;96.50;;;;;;5110684;28;20031;-69
2022/06/06 11:26:22;;;;;;;3.15;1.30;;;21.60;97.80;;;;;;5109685;28;20474;-70
2022/06/06 11:29:18;;;;;;;1.63;1.10;;;21.40;97.00;;;;;;5109182;28;20119;-69
2022/06/06 11:32:20;;;;;;;2.33;1.40;;;21.60;97.60;;;;;;5110341;28;20107;-69
2022/06/06 11:38:05;;;;;;;3.38;1.15;;;21.90;96.30;;;;;;5111203;27;20380;-70
2022/06/06 11:40:48;;;;;;;3.65;1.10;;;22.10;95.60;;;;;;5109642;28;20066;-70
2022/06/06 11:46:36;;;;;;;1.67;1.23;;;22.00;95.80;;;;;;5090873;28;20348;-68
2022/06/06 11:52:12;;;;;;;3.25;1.20;;;21.90;97.70;;;;;;5111138;27;20889;-70
2022/06/06 11:58:22;;;;;;;2.35;1.10;;;21.40;97.10;;;;;;5111110;27;20346;-68
2022/06/06 12:01:28;;;;;;;3.65;1.83;;;20.70;97.70;;;;;;5110871;28;20032;-68
2022/06/06 12:04:33;;;;;;;2.15;1.20;;;20.30;98.50;;;;;;5110870;28;20016;-69
2022/06/06 12:07:36;;;;;;;3.47;1.35;;;20.50;99.20;;;;;;5110888;28;20020;-68
2022/06/06 12:10:26;;;;;;;1.98;1.10;;;20.70;99.90;;;;;;5110812;28;20024;-70
2022/06/06 12:13:20;;;;;;;1.70;1.17;;;20.80;99.90;;;;;;5109498;28;20161;-68
2022/06/06 12:15:59;;;;;;;3.83;1.63;;;20.90;99.90;;;;;;5110685;28;20108;-69
2022/06/06 12:18:58;;;;;;;2.47;1.20;;;21.10;99.90;;;;;;5110802;28;20016;-68
2022/06/06 12:21:53;;;;;;;2.42;1.00;;;21.00;99.80;;;;;;5109552;28;20024;-68
2022/06/06 12:24:58;;;;;;;4.70;1.00;;;19.80;99.90;;;;;;5109560;28;20020;-68
2022/06/06 12:28:04;;;;;;;3.08;0.90;;;19.10;99.90;;;;;;5110496;28;20027;-68
2022/06/06 12:30:56;;;;;;;1.63;1.15;;;18.60;99.90;;;;;;5110439;28;20024;-69
2022/06/06 12:33:30;;;;;;;0.70;0.70;;;19.10;99.90;;;;;;5109118;28;20020;-69
2022/06/06 12:36:06;;;;;;;1.40;0.85;;;19.10;99.90;;;;;;5110400;28;20106;-69
2022/06/06 12:39:05;;;;;;;2.63;0.80;;;19.10;99.90;;;;;;5110298;28;20545;-68
2022/06/06 12:41:53;;;;;;;1.90;1.13;;;19.40;99.90;;;;;;5110415;28;20085;-68
2022/06/06 12:44:59;;;;;;;5.57;1.40;;;19.60;99.90;;;;;;5110189;28;20012;-69
2022/06/06 12:47:48;;;;;;;1.95;1.00;;;19.40;99.90;;;;;;5110150;28;20485;-69
2022/06/06 12:50:54;;;;;;;1.15;0.90;;;19.10;99.90;;;;;;5109021;28;20035;-69
2022/06/06 12:53:56;;;;;;;1.10;1.00;;;19.10;99.90;;;;;;5108604;28;20032;-68
2022/06/06 12:56:38;;;;;;;1.73;1.00;;;19.50;99.90;;;;;;5109669;28;20040;-70
2022/06/06 13:02:41;;;;;;;1.77;1.00;;;20.50;99.90;;;;;;5113061;27;1205235;-69
2022/06/06 13:05:31;;;;;;;2.00;0.90;;;19.90;99.90;;;;;;5130087;28;20027;-69
2022/06/06 13:08:38;;;;;;;1.75;1.08;;;19.60;99.90;;;;;;5131465;28;20081;-69
2022/06/06 13:11:20;;;;;;;1.75;0.80;;;19.70;99.90;;;;;;5130116;28;20016;-70
2022/06/06 13:14:11;;;;;;;4.03;1.13;;;19.60;99.90;;;;;;5131463;27;20031;-70
2022/06/06 13:17:09;;;;;;;2.03;1.00;;;19.80;99.90;;;;;;5113000;28;20050;-70
2022/06/06 13:20:03;;;;;;;1.42;0.90;;;20.00;99.90;;;;;;5129913;28;20023;-70
2022/06/06 13:25:24;;;;;;;2.70;0.85;;;20.80;99.90;;;;;;5111179;27;20384;-70
2022/06/06 13:30:35;;;;;;;1.05;0.82;;;20.70;99.90;;;;;;5090936;28;20378;-69
2022/06/06 13:33:37;;;;;;;1.00;0.70;;;21.10;98.30;;;;;;5090754;28;20029;-70
2022/06/06 13:36:42;;;;;;;1.27;0.93;;;21.00;96.20;;;;;;5090589;28;20046;-70
2022/06/06 13:39:36;;;;;;;2.03;0.90;;;20.50;98.10;;;;;;5090618;28;20020;-70
2022/06/06 13:42:31;;;;;;;2.80;0.90;;;20.30;97.40;;;;;;5089630;28;20082;-70
2022/06/06 13:45:15;;;;;;;1.65;0.90;;;20.50;98.20;;;;;;5090512;28;20028;-70
2022/06/06 13:48:21;;;;;;;1.77;0.90;;;20.90;99.40;;;;;;5090549;28;20447;-70
2022/06/06 13:51:17;;;;;;;2.50;0.90;;;20.80;98.70;;;;;;5089013;28;20027;-69
2022/06/06 13:59:50;;;;;;;2.63;1.02;;;21.10;98.50;;;;;;5070581;28;20357;-69
2022/06/06 14:05:46;;;;;;;1.35;1.20;;;21.30;98.10;;;;;;5111082;27;20307;-70
2022/06/06 14:08:16;;;;;;;3.60;1.10;;;21.40;98.00;;;;;;5109813;28;20474;-69
2022/06/06 14:11:05;;;;;;;4.43;1.05;;;21.50;96.60;;;;;;5092830;28;20026;-69
2022/06/06 14:13:49;;;;;;;2.28;1.10;;;21.40;96.80;;;;;;5110065;28;20081;-69
2022/06/06 14:16:35;;;;;;;2.22;1.40;;;21.20;97.70;;;;;;5109631;28;20035;-69
2022/06/06 14:19:22;;;;;;;3.00;1.25;;;21.60;97.50;;;;;;5109729;28;20028;-70
2022/06/06 14:22:01;;;;;;;3.17;1.15;;;21.80;96.80;;;;;;5092517;28;20026;-70
2022/06/06 14:24:29;;;;;;;1.10;1.00;;;21.60;96.40;;;;;;5110828;28;20027;-70
2022/06/06 14:27:02;;;;;;;1.77;1.30;;;21.70;97.10;;;;;;5110839;28;20431;-70
2022/06/06 14:29:32;;;;;;;1.88;1.13;;;21.70;97.40;;;;;;5109700;28;20385;-71
2022/06/06 14:32:03;;;;;;;2.95;1.20;;;21.50;98.00;;;;;;5110641;28;20020;-69
2022/06/06 14:34:41;;;;;;;4.90;1.30;;;21.70;97.80;;;;;;5110597;28;20389;-69
2022/06/06 14:37:12;;;;;;;1.73;1.30;;;21.80;96.70;;;;;;5110466;28;20024;-69
2022/06/06 14:39:41;;;;;;;2.70;1.20;;;22.00;96.20;;;;;;5110434;28;20035;-69
2022/06/06 14:42:10;;;;;;;2.35;1.13;;;22.20;95.10;;;;;;5109289;28;20027;-69
2022/06/06 14:44:41;;;;;;;2.95;1.25;;;22.50;95.50;;;;;;5109142;28;20024;-69
2022/06/06 14:47:14;;;;;;;3.35;1.30;;;22.60;94.60;;;;;;5092475;28;20420;-68
2022/06/06 14:49:43;;;;;;;;;;;22.40;92.30;;;;;;5110754;28;20016;-69
2022/06/06 14:52:17;;;;;;;2.35;1.20;;;22.30;92.30;;;;;;5110259;28;19904;-69
2022/06/06 14:54:49;;;;;;;4.22;1.30;;;22.30;93.90;;;;;;5109105;28;20474;-68
2022/06/06 14:57:15;;;;;;;2.63;1.15;;;21.80;93.90;;;;;;5092218;28;20093;-69
2022/06/06 14:59:46;;;;;;;4.22;1.73;;;21.90;93.40;;;;;;5091904;28;20027;-70
2022/06/06 15:02:29;;;;;;;4.00;1.30;;;21.80;93.50;;;;;;5108862;28;20028;-69
2022/06/06 15:05:18;;;;;;;4.88;1.42;;;21.90;94.30;;;;;;5109756;28;20044;-67
2022/06/06 15:07:53;;;;;;;3.20;1.05;;;21.50;92.80;;;;;;5108976;28;20020;-68
2022/06/06 15:10:28;;;;;;;3.33;0.90;;;21.70;94.50;;;;;;5109915;28;20069;-69
2022/06/06 15:12:55;;;;;;;2.38;1.10;;;21.50;92.10;;;;;;5109920;28;20469;-70
2022/06/06 15:15:23;;;;;;;3.47;1.00;;;21.40;92.30;;;;;;5085156;28;20016;-69
2022/06/06 15:17:50;;;;;;;2.53;0.80;;;21.60;90.20;;;;;;5096164;28;20027;-68
2022/06/06 15:20:22;;;;;;;1.23;1.00;;;21.60;90.10;;;;;;5094950;28;20016;-69
2022/06/06 15:22:49;;;;;;;1.53;1.10;;;21.90;90.60;;;;;;5094942;28;20023;-69
2022/06/06 15:25:23;;;;;;;1.42;1.02;;;22.00;90.10;;;;;;5077932;28;20270;-69
2022/06/06 15:28:16;;;;;;;2.28;1.20;;;22.00;88.60;;;;;;5078500;28;20024;-69